Time;durP1;ratioP1;P1;durP2;ratioP2;P2;SDS_P1;SDS_P2;PMS_P1;PMS_P2;Temp;Humidity;BMP_temperature;BMP_pressure;BME280_temperature;BME280_humidity;BME280_pressure;Samples;Min_cycle;Max_cycle;Signal;HPM_P1;HPM_P2
2023/12/24 00:00:55;;;;;;;0.13;0.13;;;10.80;99.90;;;;;;7397232;19;20143;-85
2023/12/24 00:03:21;;;;;;;0.40;0.40;;;10.80;99.90;;;;;;7397039;19;20143;-86
2023/12/24 00:05:47;;;;;;;0.30;0.20;;;10.70;99.90;;;;;;7396160;19;20126;-86
2023/12/24 00:08:12;;;;;;;0.27;0.20;;;10.70;99.90;;;;;;7396630;19;20138;-86
2023/12/24 00:10:38;;;;;;;0.30;0.30;;;10.70;99.90;;;;;;7394995;19;20138;-87
2023/12/24 00:13:04;;;;;;;0.20;0.20;;;10.60;99.90;;;;;;7395056;19;20691;-88
2023/12/24 00:15:30;;;;;;;0.20;0.20;;;10.50;99.90;;;;;;7394526;19;20122;-86
2023/12/24 00:17:55;;;;;;;0.20;0.20;;;10.50;99.90;;;;;;7397839;19;20587;-87
2023/12/24 00:20:21;;;;;;;0.20;0.20;;;10.80;99.90;;;;;;7396347;19;20176;-87
2023/12/24 00:23:04;;;;;;;0.20;0.20;;;10.70;99.90;;;;;;7396123;19;20123;-88
2023/12/24 00:25:30;;;;;;;0.20;0.20;;;10.60;99.90;;;;;;7396035;19;20138;-88
2023/12/24 00:27:55;;;;;;;0.27;0.27;;;10.70;99.90;;;;;;7395801;19;20139;-87
2023/12/24 00:30:22;;;;;;;0.20;0.20;;;10.80;99.90;;;;;;7397025;19;20149;-87
2023/12/24 00:32:48;;;;;;;0.20;0.20;;;10.90;99.90;;;;;;7395919;19;20154;-87
2023/12/24 00:35:14;;;;;;;0.27;0.20;;;10.80;99.90;;;;;;7396970;19;20165;-87
2023/12/24 00:37:40;;;;;;;0.20;0.20;;;10.80;99.90;;;;;;7394900;19;20228;-88
2023/12/24 00:40:06;;;;;;;0.17;0.17;;;10.70;99.90;;;;;;7396327;19;20150;-87
2023/12/24 00:42:31;;;;;;;0.30;0.30;;;10.80;99.90;;;;;;7396073;19;20146;-87
2023/12/24 00:44:57;;;;;;;0.50;0.40;;;10.80;99.90;;;;;;7396845;19;20131;-87
2023/12/24 00:47:23;;;;;;;0.20;0.20;;;10.80;99.90;;;;;;7395498;19;20127;-87
2023/12/24 00:49:50;;;;;;;0.60;0.30;;;10.70;99.90;;;;;;7393040;19;20512;-86
2023/12/24 00:52:15;;;;;;;0.20;0.20;;;10.70;99.90;;;;;;7395646;19;20548;-85
2023/12/24 00:54:41;;;;;;;0.30;0.30;;;10.90;99.90;;;;;;7394859;19;20169;-86
2023/12/24 00:57:07;;;;;;;0.10;0.10;;;10.90;99.90;;;;;;7395240;19;20170;-87
2023/12/24 00:59:33;;;;;;;0.33;0.20;;;10.60;99.90;;;;;;7394142;19;20131;-87
2023/12/24 01:01:58;;;;;;;0.20;0.20;;;10.60;99.90;;;;;;7395936;19;20158;-87
2023/12/24 01:04:24;;;;;;;0.30;0.30;;;10.40;99.90;;;;;;7398223;19;20170;-86
2023/12/24 01:06:50;;;;;;;0.20;0.20;;;10.60;99.90;;;;;;7398712;19;20154;-87
2023/12/24 01:09:15;;;;;;;0.40;0.40;;;10.60;99.90;;;;;;7398912;19;20206;-87
2023/12/24 01:11:41;;;;;;;0.20;0.20;;;10.50;99.90;;;;;;7396970;19;20130;-88
2023/12/24 01:14:07;;;;;;;0.37;0.37;;;10.40;99.90;;;;;;7395435;19;20461;-86
2023/12/24 01:16:38;;;;;;;0.20;0.20;;;10.70;99.90;;;;;;7396015;19;20134;-88
2023/12/24 01:19:03;;;;;;;0.20;0.20;;;10.60;99.90;;;;;;7394260;19;20607;-87
2023/12/24 01:21:29;;;;;;;0.13;0.13;;;10.80;99.90;;;;;;7394144;19;20165;-86
2023/12/24 01:23:55;;;;;;;0.20;0.20;;;10.80;99.90;;;;;;7393748;19;20134;-86
2023/12/24 01:26:21;;;;;;;0.17;0.17;;;10.70;99.90;;;;;;7396273;19;20133;-87
2023/12/24 01:28:46;;;;;;;0.30;0.30;;;10.80;99.90;;;;;;7395952;19;20135;-87
2023/12/24 01:31:12;;;;;;;0.20;0.20;;;10.80;99.90;;;;;;7395137;19;20492;-88
2023/12/24 01:33:38;;;;;;;0.20;0.20;;;10.90;99.90;;;;;;7396434;19;20206;-87
2023/12/24 01:36:04;;;;;;;0.20;0.20;;;10.70;99.90;;;;;;7398392;19;20150;-89
2023/12/24 01:38:30;;;;;;;0.10;0.10;;;10.70;99.90;;;;;;7393028;19;20123;-87
2023/12/24 01:40:56;;;;;;;0.20;0.20;;;10.70;99.90;;;;;;7394488;19;20130;-87
2023/12/24 01:43:21;;;;;;;0.20;0.20;;;10.60;99.90;;;;;;7397150;19;20126;-88
2023/12/24 01:45:48;;;;;;;0.27;0.20;;;10.50;99.90;;;;;;7395303;19;20118;-87
2023/12/24 01:48:15;;;;;;;0.20;0.20;;;10.50;99.90;;;;;;7394400;19;20126;-86
2023/12/24 01:50:45;;;;;;;0.20;0.20;;;10.50;99.90;;;;;;7393660;19;20166;-87
2023/12/24 01:53:13;;;;;;;0.40;0.40;;;10.50;99.90;;;;;;7395642;19;20202;-87
2023/12/24 01:55:39;;;;;;;0.40;0.30;;;10.60;99.90;;;;;;7396357;19;20135;-85
2023/12/24 01:58:05;;;;;;;0.13;0.13;;;10.50;99.90;;;;;;7394129;19;20130;-86
2023/12/24 02:00:31;;;;;;;0.20;0.20;;;10.60;99.90;;;;;;7394896;19;20604;-87
2023/12/24 02:02:59;;;;;;;0.20;0.20;;;10.50;99.90;;;;;;7399496;19;20134;-87
2023/12/24 02:05:26;;;;;;;0.40;0.40;;;10.60;99.90;;;;;;7399818;19;20174;-89
2023/12/24 02:07:52;;;;;;;0.30;0.30;;;10.90;99.90;;;;;;7399969;19;20611;-86
2023/12/24 02:10:19;;;;;;;0.20;0.20;;;10.60;99.90;;;;;;7399624;19;20150;-86
2023/12/24 02:12:45;;;;;;;0.30;0.30;;;10.50;99.90;;;;;;7400715;19;20155;-90
2023/12/24 02:15:11;;;;;;;0.37;0.37;;;10.60;99.90;;;;;;7400936;19;20151;-89
2023/12/24 02:17:38;;;;;;;0.20;0.20;;;10.50;99.90;;;;;;7399792;19;20157;-88
2023/12/24 02:20:05;;;;;;;0.13;0.13;;;10.60;99.90;;;;;;7400231;19;20153;-88
2023/12/24 02:22:31;;;;;;;0.20;0.20;;;10.70;99.90;;;;;;7400177;19;20163;-89
2023/12/24 02:24:57;;;;;;;0.20;0.20;;;10.70;99.90;;;;;;7399906;19;20150;-90
2023/12/24 02:27:32;;;;;;;0.20;0.20;;;10.60;99.90;;;;;;7402128;19;20615;-88
2023/12/24 02:30:05;;;;;;;0.10;0.10;;;10.80;99.90;;;;;;7400489;19;20157;-88
2023/12/24 02:32:33;;;;;;;0.20;0.20;;;10.60;99.90;;;;;;7401132;19;20568;-90
2023/12/24 02:35:01;;;;;;;0.10;0.10;;;10.60;99.90;;;;;;7401171;19;20147;-90
2023/12/24 02:37:28;;;;;;;0.20;0.20;;;10.60;99.90;;;;;;7399390;19;20604;-90
2023/12/24 02:39:53;;;;;;;0.37;0.37;;;10.50;99.90;;;;;;7398991;19;20159;-90
2023/12/24 02:42:19;;;;;;;0.30;0.30;;;10.50;99.90;;;;;;7399733;19;20185;-89
2023/12/24 02:44:45;;;;;;;0.20;0.20;;;10.50;99.90;;;;;;7399775;19;20141;-88
2023/12/24 02:47:10;;;;;;;0.50;0.20;;;10.90;99.90;;;;;;7398653;19;20159;-88
2023/12/24 02:49:36;;;;;;;0.20;0.20;;;10.50;99.90;;;;;;7398190;19;20131;-88
2023/12/24 02:52:04;;;;;;;0.30;0.20;;;10.50;99.90;;;;;;7398292;19;20154;-89
2023/12/24 02:54:29;;;;;;;0.20;0.20;;;10.70;99.90;;;;;;7398648;19;20229;-89
2023/12/24 02:56:55;;;;;;;0.30;0.30;;;10.80;99.90;;;;;;7398004;19;20156;-90
2023/12/24 02:59:21;;;;;;;0.50;0.40;;;10.70;99.90;;;;;;7397378;19;20600;-88
2023/12/24 03:01:47;;;;;;;0.10;0.10;;;10.50;99.90;;;;;;7398257;19;20496;-88
2023/12/24 03:04:13;;;;;;;0.10;0.10;;;10.60;99.90;;;;;;7396826;19;20525;-89
2023/12/24 03:06:38;;;;;;;0.20;0.20;;;10.50;99.90;;;;;;7399017;19;20146;-89
2023/12/24 03:09:04;;;;;;;0.20;0.20;;;10.40;99.90;;;;;;7398561;19;20139;-88
2023/12/24 03:11:30;;;;;;;0.20;0.20;;;10.30;99.90;;;;;;7398844;19;20194;-87
2023/12/24 03:13:55;;;;;;;0.23;0.20;;;10.40;99.90;;;;;;7398101;19;20143;-90
2023/12/24 03:16:22;;;;;;;0.27;0.27;;;10.30;99.90;;;;;;7399860;19;20693;-90
2023/12/24 03:18:47;;;;;;;0.10;0.10;;;10.50;99.90;;;;;;7396792;19;20133;-89
2023/12/24 03:21:13;;;;;;;1.70;0.30;;;10.50;99.90;;;;;;7397577;19;20138;-89
2023/12/24 03:23:39;;;;;;;0.20;0.20;;;10.50;99.90;;;;;;7399235;19;20126;-90
2023/12/24 03:26:04;;;;;;;0.10;0.10;;;10.60;99.90;;;;;;7398958;19;20250;-88
2023/12/24 03:28:31;;;;;;;0.40;0.30;;;10.50;99.90;;;;;;7397378;19;20156;-90
2023/12/24 03:30:57;;;;;;;0.20;0.20;;;10.50;99.90;;;;;;7397344;19;20596;-88
2023/12/24 03:33:22;;;;;;;0.30;0.30;;;10.40;99.90;;;;;;7399336;19;20145;-87
2023/12/24 03:35:48;;;;;;;0.20;0.20;;;10.40;99.90;;;;;;7396441;19;20130;-88
2023/12/24 03:38:14;;;;;;;0.20;0.20;;;10.60;99.90;;;;;;7397642;19;20130;-87
2023/12/24 03:40:40;;;;;;;0.10;0.10;;;10.50;99.90;;;;;;7396945;19;20146;-88
2023/12/24 03:43:05;;;;;;;0.20;0.20;;;10.60;99.90;;;;;;7398504;19;20146;-88
2023/12/24 03:45:32;;;;;;;0.40;0.40;;;10.70;99.90;;;;;;7396144;19;20138;-88
2023/12/24 03:48:02;;;;;;;0.30;0.30;;;10.70;99.90;;;;;;7395308;19;20131;-87
2023/12/24 03:50:28;;;;;;;0.20;0.20;;;10.70;99.90;;;;;;7395725;19;20227;-88
2023/12/24 03:52:54;;;;;;;0.30;0.30;;;10.70;99.90;;;;;;7397872;19;20159;-89
2023/12/24 03:55:19;;;;;;;0.60;0.60;;;10.60;99.90;;;;;;7396065;19;20643;-86
2023/12/24 03:57:45;;;;;;;0.20;0.20;;;10.60;99.90;;;;;;7393133;19;20154;-87
2023/12/24 04:00:13;;;;;;;0.20;0.20;;;10.70;99.90;;;;;;7397333;19;20123;-89
2023/12/24 04:02:39;;;;;;;0.20;0.20;;;10.70;99.90;;;;;;7397014;19;20127;-88
2023/12/24 04:05:05;;;;;;;0.57;0.30;;;10.70;99.90;;;;;;7395294;19;20596;-87
2023/12/24 04:07:31;;;;;;;0.20;0.20;;;10.50;99.90;;;;;;7396220;19;20139;-88
2023/12/24 04:09:56;;;;;;;0.20;0.20;;;10.40;99.90;;;;;;7397274;19;20450;-89
2023/12/24 04:12:22;;;;;;;0.20;0.20;;;10.50;99.90;;;;;;7397113;19;20130;-90
2023/12/24 04:14:48;;;;;;;0.20;0.20;;;10.70;99.90;;;;;;7395937;19;20122;-89
2023/12/24 04:17:15;;;;;;;0.30;0.30;;;10.50;99.90;;;;;;7397120;19;20143;-89
2023/12/24 04:19:40;;;;;;;0.30;0.20;;;10.50;99.90;;;;;;7395363;19;20141;-89
2023/12/24 04:22:06;;;;;;;0.20;0.20;;;10.70;99.90;;;;;;7397627;19;20143;-89
2023/12/24 04:24:33;;;;;;;0.20;0.20;;;10.60;99.90;;;;;;7395054;19;20143;-88
2023/12/24 04:27:00;;;;;;;0.20;0.20;;;10.50;99.90;;;;;;7398241;19;20130;-89
2023/12/24 04:29:26;;;;;;;0.33;0.33;;;10.40;99.90;;;;;;7396659;19;20152;-88
2023/12/24 04:31:51;;;;;;;0.23;0.20;;;10.60;99.90;;;;;;7396554;19;20138;-90
2023/12/24 04:34:17;;;;;;;0.23;0.23;;;10.70;99.90;;;;;;7398277;19;20127;-88
2023/12/24 04:36:43;;;;;;;0.30;0.30;;;10.60;99.90;;;;;;7395690;19;20434;-88
2023/12/24 04:39:09;;;;;;;0.57;0.37;;;10.40;99.90;;;;;;7395648;19;20134;-88
2023/12/24 04:41:34;;;;;;;0.20;0.20;;;10.30;99.90;;;;;;7396481;19;20146;-86
2023/12/24 04:44:00;;;;;;;0.22;0.20;;;10.40;99.90;;;;;;7396365;19;20214;-88
2023/12/24 04:46:26;;;;;;;0.30;0.30;;;10.60;99.90;;;;;;7397310;19;20138;-88
2023/12/24 04:48:52;;;;;;;0.20;0.20;;;10.50;99.90;;;;;;7395405;19;20122;-89
2023/12/24 04:51:17;;;;;;;0.20;0.20;;;10.60;99.90;;;;;;7397529;19;20454;-88
2023/12/24 04:53:43;;;;;;;0.40;0.40;;;10.50;99.90;;;;;;7395357;19;20135;-89
2023/12/24 04:56:21;;;;;;;0.20;0.20;;;10.80;99.90;;;;;;7396173;19;20128;-89
2023/12/24 04:58:47;;;;;;;0.20;0.20;;;10.60;99.90;;;;;;7395215;19;20127;-89
2023/12/24 05:01:15;;;;;;;0.30;0.30;;;10.50;99.90;;;;;;7395854;19;20213;-88
2023/12/24 05:03:41;;;;;;;0.30;0.30;;;10.50;99.90;;;;;;7394854;19;20249;-87
2023/12/24 05:06:07;;;;;;;0.20;0.20;;;10.50;99.90;;;;;;7395001;19;20603;-89
2023/12/24 05:08:33;;;;;;;0.23;0.23;;;10.50;99.90;;;;;;7394936;19;20134;-87
2023/12/24 05:11:06;;;;;;;0.20;0.20;;;10.50;99.90;;;;;;7395268;19;20476;-89
2023/12/24 05:13:33;;;;;;;0.20;0.20;;;10.50;99.90;;;;;;7394065;19;20506;-88
2023/12/24 05:15:58;;;;;;;0.20;0.20;;;10.40;99.90;;;;;;7395095;19;20146;-88
2023/12/24 05:18:24;;;;;;;0.30;0.30;;;10.30;99.90;;;;;;7393525;19;20130;-89
2023/12/24 05:20:50;;;;;;;0.30;0.30;;;10.40;99.90;;;;;;7395044;19;20138;-91
2023/12/24 05:23:17;;;;;;;0.20;0.20;;;10.40;99.90;;;;;;7394739;19;20150;-88
2023/12/24 05:25:43;;;;;;;0.70;0.67;;;10.40;99.90;;;;;;7394706;19;20139;-88
2023/12/24 05:28:09;;;;;;;0.20;0.20;;;10.40;99.90;;;;;;7393660;19;20154;-89
2023/12/24 05:30:35;;;;;;;0.30;0.30;;;10.40;99.90;;;;;;7393015;19;20134;-89
2023/12/24 05:33:01;;;;;;;0.30;0.30;;;10.50;99.90;;;;;;7393225;19;20147;-89
2023/12/24 05:35:26;;;;;;;0.57;0.47;;;10.50;99.90;;;;;;7393304;19;20148;-88
2023/12/24 05:37:52;;;;;;;0.20;0.20;;;10.50;99.90;;;;;;7397176;19;20126;-89
2023/12/24 05:40:18;;;;;;;0.20;0.20;;;10.20;99.90;;;;;;7401521;19;20147;-88
2023/12/24 05:42:44;;;;;;;0.27;0.27;;;10.30;99.90;;;;;;7401738;19;20650;-89
2023/12/24 05:45:11;;;;;;;0.20;0.20;;;10.50;99.90;;;;;;7403189;19;20463;-90
2023/12/24 05:47:37;;;;;;;0.40;0.27;;;10.40;99.90;;;;;;7402405;19;20643;-91
2023/12/24 05:50:08;;;;;;;0.20;0.20;;;10.30;99.90;;;;;;7401927;19;20206;-88
2023/12/24 05:52:33;;;;;;;0.20;0.20;;;10.30;99.90;;;;;;7402553;19;20198;-90
2023/12/24 05:55:00;;;;;;;0.20;0.20;;;10.40;99.90;;;;;;7402290;19;20585;-91
2023/12/24 05:57:26;;;;;;;0.20;0.20;;;10.50;99.90;;;;;;7402038;19;20127;-87
2023/12/24 05:59:52;;;;;;;2.30;0.30;;;10.30;99.90;;;;;;7400328;19;20668;-85
2023/12/24 06:02:18;;;;;;;0.20;0.20;;;10.30;99.90;;;;;;7401715;19;20419;-88
2023/12/24 06:04:44;;;;;;;0.20;0.20;;;10.30;99.90;;;;;;7398677;19;20234;-87
2023/12/24 06:07:10;;;;;;;0.17;0.17;;;10.10;99.90;;;;;;7402731;19;20154;-90
2023/12/24 06:09:36;;;;;;;0.13;0.13;;;10.30;99.90;;;;;;7402307;19;20122;-89
2023/12/24 06:12:02;;;;;;;0.97;0.30;;;10.30;99.90;;;;;;7401477;19;20485;-90
2023/12/24 06:14:28;;;;;;;0.30;0.30;;;10.40;99.90;;;;;;7400398;19;20227;-90
2023/12/24 06:16:53;;;;;;;0.20;0.20;;;10.30;99.90;;;;;;7401577;19;20123;-90
2023/12/24 06:19:19;;;;;;;0.20;0.20;;;10.50;99.90;;;;;;7398458;19;20130;-89
2023/12/24 06:21:45;;;;;;;0.20;0.20;;;10.50;99.90;;;;;;7400252;19;20127;-88
2023/12/24 06:24:11;;;;;;;0.20;0.20;;;10.40;99.90;;;;;;7401288;19;20119;-89
2023/12/24 06:26:36;;;;;;;0.20;0.20;;;10.50;99.90;;;;;;7400863;19;20138;-90
2023/12/24 06:29:02;;;;;;;0.10;0.10;;;10.60;99.90;;;;;;7402239;19;20127;-89
2023/12/24 06:31:30;;;;;;;0.30;0.30;;;10.60;99.90;;;;;;7401727;19;20138;-91
2023/12/24 06:33:55;;;;;;;0.20;0.20;;;10.60;99.90;;;;;;7401303;19;20147;-90
2023/12/24 06:36:21;;;;;;;0.20;0.20;;;10.50;99.90;;;;;;7402583;19;20145;-89
2023/12/24 06:38:47;;;;;;;0.10;0.10;;;10.50;99.90;;;;;;7398739;19;20149;-90
2023/12/24 06:41:13;;;;;;;0.30;0.30;;;10.60;99.90;;;;;;7400488;19;20131;-89
2023/12/24 06:43:38;;;;;;;0.30;0.30;;;10.70;99.90;;;;;;7401150;19;20127;-90
2023/12/24 06:46:12;;;;;;;0.37;0.37;;;10.60;99.90;;;;;;7399717;19;20166;-87
2023/12/24 06:48:39;;;;;;;0.30;0.30;;;10.70;99.90;;;;;;7402506;19;20138;-88
2023/12/24 06:51:05;;;;;;;0.10;0.10;;;10.70;99.90;;;;;;7403065;19;20127;-90
2023/12/24 06:53:31;;;;;;;0.17;0.17;;;10.70;99.90;;;;;;7401942;19;20135;-92
2023/12/24 06:55:56;;;;;;;0.20;0.20;;;10.50;99.90;;;;;;7403132;19;20127;-91
2023/12/24 06:58:22;;;;;;;0.20;0.20;;;11.00;99.90;;;;;;7402433;19;20142;-91
2023/12/24 07:00:48;;;;;;;0.40;0.40;;;10.90;99.90;;;;;;7401903;19;20140;-92
2023/12/24 07:03:14;;;;;;;0.20;0.20;;;10.70;99.90;;;;;;7402633;19;20185;-89
2023/12/24 07:05:41;;;;;;;0.20;0.20;;;10.70;99.90;;;;;;7396473;19;20505;-86
2023/12/24 07:08:07;;;;;;;0.20;0.20;;;10.80;99.90;;;;;;7401521;19;20131;-88
2023/12/24 07:10:34;;;;;;;0.30;0.30;;;10.60;99.90;;;;;;7398359;19;20141;-92
2023/12/24 07:13:00;;;;;;;0.50;0.50;;;10.40;99.90;;;;;;7402943;19;20131;-92
2023/12/24 07:15:26;;;;;;;0.40;0.40;;;10.60;99.90;;;;;;7401871;19;20501;-91
2023/12/24 07:17:52;;;;;;;0.20;0.20;;;10.70;99.90;;;;;;7399389;19;20135;-90
2023/12/24 07:20:17;;;;;;;0.20;0.20;;;10.80;99.90;;;;;;7402036;19;20624;-86
2023/12/24 07:22:44;;;;;;;0.23;0.20;;;10.90;99.90;;;;;;7399351;19;20130;-86
2023/12/24 07:25:12;;;;;;;0.53;0.30;;;10.70;99.90;;;;;;7399561;19;20131;-85
2023/12/24 07:27:43;;;;;;;0.93;0.57;;;10.60;99.90;;;;;;7399951;19;20154;-85
2023/12/24 07:30:09;;;;;;;0.30;0.30;;;10.60;99.90;;;;;;7398067;19;20370;-85
2023/12/24 07:32:35;;;;;;;0.20;0.20;;;10.80;99.90;;;;;;7400740;19;20138;-84
2023/12/24 07:35:00;;;;;;;0.30;0.27;;;10.90;99.90;;;;;;7396790;19;20595;-86
2023/12/24 07:37:26;;;;;;;0.20;0.20;;;10.90;99.90;;;;;;7398635;19;20576;-85
2023/12/24 07:39:52;;;;;;;0.20;0.20;;;10.60;99.90;;;;;;7397170;19;20135;-85
2023/12/24 07:42:18;;;;;;;0.30;0.30;;;10.70;99.90;;;;;;7397610;19;20470;-85
2023/12/24 07:44:44;;;;;;;0.53;0.30;;;10.70;99.90;;;;;;7397959;19;20556;-85
2023/12/24 07:47:10;;;;;;;0.10;0.10;;;10.60;99.90;;;;;;7400592;19;20592;-86
2023/12/24 07:49:35;;;;;;;0.20;0.20;;;10.70;99.90;;;;;;7401387;19;21025;-88
2023/12/24 07:52:01;;;;;;;0.30;0.30;;;10.80;99.90;;;;;;7401522;19;20157;-86
2023/12/24 07:54:30;;;;;;;0.63;0.63;;;10.80;99.90;;;;;;7396096;19;20122;-87
2023/12/24 07:56:56;;;;;;;0.20;0.20;;;10.80;99.90;;;;;;7398711;19;20194;-85
2023/12/24 07:59:21;;;;;;;0.20;0.20;;;10.70;99.90;;;;;;7395075;19;20520;-87
2023/12/24 08:01:47;;;;;;;0.20;0.20;;;10.70;99.90;;;;;;7398108;19;20115;-86
2023/12/24 08:04:13;;;;;;;0.10;0.10;;;10.70;99.90;;;;;;7398345;19;20178;-86
2023/12/24 08:06:39;;;;;;;0.30;0.30;;;10.90;99.90;;;;;;7399400;19;20140;-88
2023/12/24 08:09:04;;;;;;;0.30;0.10;;;10.80;99.90;;;;;;7396915;19;20131;-84
2023/12/24 08:11:30;;;;;;;0.20;0.20;;;10.90;99.90;;;;;;7395588;19;20155;-84
2023/12/24 08:13:56;;;;;;;0.30;0.30;;;11.00;99.90;;;;;;7396115;19;20142;-86
2023/12/24 08:16:21;;;;;;;0.20;0.20;;;10.80;99.90;;;;;;7398682;19;20130;-87
2023/12/24 08:18:47;;;;;;;0.20;0.20;;;10.90;99.90;;;;;;7394111;19;20138;-86
2023/12/24 08:21:13;;;;;;;0.20;0.20;;;10.90;99.90;;;;;;7395550;19;20151;-85
2023/12/24 08:23:39;;;;;;;0.30;0.30;;;11.00;99.90;;;;;;7395204;19;20217;-83
2023/12/24 08:26:05;;;;;;;0.20;0.20;;;11.00;99.90;;;;;;7394678;19;20175;-83
2023/12/24 08:28:31;;;;;;;0.20;0.20;;;10.90;99.90;;;;;;7393574;19;20189;-87
2023/12/24 08:30:57;;;;;;;0.37;0.30;;;10.90;99.90;;;;;;7395734;19;20146;-84
2023/12/24 08:33:23;;;;;;;0.20;0.20;;;11.00;99.90;;;;;;7396329;19;20153;-84
2023/12/24 08:35:48;;;;;;;0.40;0.40;;;11.00;99.90;;;;;;7394306;19;20600;-81
2023/12/24 08:38:14;;;;;;;0.20;0.20;;;11.00;99.90;;;;;;7393948;19;20143;-86
2023/12/24 08:40:40;;;;;;;0.20;0.20;;;10.90;99.90;;;;;;7396663;19;20509;-90
2023/12/24 08:43:06;;;;;;;0.23;0.23;;;10.80;99.90;;;;;;7401060;19;20135;-88
2023/12/24 08:45:32;;;;;;;0.30;0.20;;;10.90;99.90;;;;;;7396518;19;20157;-79
2023/12/24 08:47:57;;;;;;;0.30;0.30;;;10.80;99.90;;;;;;7398484;19;20138;-87
2023/12/24 08:50:23;;;;;;;0.97;0.30;;;10.90;99.90;;;;;;7398477;19;20142;-85
2023/12/24 08:52:49;;;;;;;0.20;0.20;;;10.80;99.90;;;;;;7395554;19;20143;-82
2023/12/24 08:55:15;;;;;;;0.20;0.20;;;10.90;99.90;;;;;;7392238;19;20131;-86
2023/12/24 08:57:41;;;;;;;0.20;0.20;;;10.90;99.90;;;;;;7392666;19;20115;-81
2023/12/24 09:00:11;;;;;;;0.30;0.30;;;10.90;99.90;;;;;;7392160;19;20256;-83
2023/12/24 09:02:40;;;;;;;0.20;0.20;;;11.00;99.90;;;;;;7393376;19;20134;-82
2023/12/24 09:05:10;;;;;;;0.20;0.20;;;11.00;99.90;;;;;;7391828;19;20680;-84
2023/12/24 09:07:36;;;;;;;0.13;0.13;;;11.10;99.90;;;;;;7392967;19;20130;-81
2023/12/24 09:10:03;;;;;;;0.20;0.20;;;11.10;99.90;;;;;;7389059;19;20131;-81
2023/12/24 09:12:29;;;;;;;0.20;0.20;;;10.90;99.90;;;;;;7391821;19;20119;-81
2023/12/24 09:14:55;;;;;;;0.20;0.20;;;11.00;99.90;;;;;;7390245;19;20157;-81
2023/12/24 09:17:21;;;;;;;0.20;0.20;;;11.00;99.90;;;;;;7391102;19;20508;-81
2023/12/24 09:19:46;;;;;;;0.30;0.30;;;11.10;99.90;;;;;;7379471;19;20216;-84
2023/12/24 09:22:12;;;;;;;0.20;0.20;;;11.10;99.90;;;;;;7389419;19;20130;-81
2023/12/24 09:24:38;;;;;;;0.20;0.20;;;10.90;99.90;;;;;;7393788;19;20146;-83
2023/12/24 09:27:04;;;;;;;0.20;0.20;;;11.00;99.90;;;;;;7393960;19;20126;-83
2023/12/24 09:29:30;;;;;;;0.17;0.17;;;10.80;99.90;;;;;;7389590;19;20780;-81
2023/12/24 09:31:56;;;;;;;1.50;0.20;;;11.00;99.90;;;;;;7393791;19;20122;-84
2023/12/24 09:34:23;;;;;;;0.20;0.20;;;10.90;99.90;;;;;;7389822;19;20135;-83
2023/12/24 09:36:49;;;;;;;0.20;0.20;;;10.90;99.90;;;;;;7390898;19;20155;-87
2023/12/24 09:39:15;;;;;;;0.20;0.20;;;10.90;99.90;;;;;;7386554;19;20141;-81
2023/12/24 09:41:40;;;;;;;0.20;0.20;;;10.90;99.90;;;;;;7388047;19;20139;-81
2023/12/24 09:44:07;;;;;;;0.20;0.20;;;11.00;99.90;;;;;;7389291;19;20222;-81
2023/12/24 09:46:33;;;;;;;0.20;0.20;;;11.00;99.90;;;;;;7391708;19;20131;-81
2023/12/24 09:48:59;;;;;;;0.30;0.30;;;10.80;99.90;;;;;;7392207;19;20592;-83
2023/12/24 09:51:26;;;;;;;0.33;0.30;;;10.80;99.90;;;;;;7391731;19;20134;-81
2023/12/24 09:53:54;;;;;;;0.27;0.27;;;10.80;99.90;;;;;;7389981;19;20147;-82
2023/12/24 09:56:20;;;;;;;0.20;0.20;;;10.70;99.90;;;;;;7382828;19;20135;-81
2023/12/24 09:58:46;;;;;;;0.23;0.20;;;10.70;99.90;;;;;;7385843;19;20141;-79
2023/12/24 10:01:12;;;;;;;0.20;0.20;;;10.80;99.90;;;;;;7389495;19;20135;-80
2023/12/24 10:03:38;;;;;;;0.10;0.10;;;10.70;99.90;;;;;;7389922;19;20234;-81
2023/12/24 10:06:07;;;;;;;0.20;0.20;;;10.70;99.90;;;;;;7390153;19;20134;-81
2023/12/24 10:08:33;;;;;;;0.30;0.30;;;10.70;99.90;;;;;;7386469;19;20150;-81
2023/12/24 10:11:16;;;;;;;0.20;0.20;;;10.70;99.90;;;;;;7392735;19;20158;-81
2023/12/24 10:13:43;;;;;;;0.10;0.10;;;10.80;99.90;;;;;;7390531;19;20146;-79
2023/12/24 10:16:09;;;;;;;0.20;0.20;;;10.80;99.90;;;;;;7388807;19;20142;-80
2023/12/24 10:18:35;;;;;;;0.20;0.20;;;10.80;99.90;;;;;;7389217;19;20495;-80
2023/12/24 10:21:11;;;;;;;0.20;0.20;;;11.00;99.90;;;;;;7392222;19;20161;-80
2023/12/24 10:23:37;;;;;;;0.20;0.20;;;10.90;99.90;;;;;;7398045;19;20138;-80
2023/12/24 10:26:04;;;;;;;0.57;0.30;;;10.90;99.90;;;;;;7397707;19;20139;-79
2023/12/24 10:28:32;;;;;;;0.27;0.27;;;10.90;99.90;;;;;;7398725;19;20209;-79
2023/12/24 10:31:09;;;;;;;0.20;0.20;;;11.00;99.90;;;;;;7393890;19;20147;-79
2023/12/24 10:33:38;;;;;;;0.20;0.20;;;11.00;99.90;;;;;;7398464;19;20122;-78
2023/12/24 10:36:05;;;;;;;0.20;0.20;;;11.10;99.90;;;;;;7393433;19;20213;-78
2023/12/24 10:38:31;;;;;;;0.20;0.20;;;11.00;99.90;;;;;;7390648;19;20155;-76
2023/12/24 10:41:20;;;;;;;0.10;0.10;;;11.00;99.90;;;;;;7391369;19;20147;-77
2023/12/24 10:43:46;;;;;;;0.37;0.37;;;11.10;99.90;;;;;;7395398;19;20578;-77
2023/12/24 10:46:12;;;;;;;0.10;0.10;;;11.20;99.90;;;;;;7391586;19;20143;-77
2023/12/24 10:48:38;;;;;;;0.30;0.20;;;11.20;99.90;;;;;;7389740;19;20165;-77
2023/12/24 10:51:05;;;;;;;0.20;0.20;;;11.30;99.90;;;;;;7393598;19;20123;-77
2023/12/24 10:53:30;;;;;;;0.40;0.40;;;11.20;99.90;;;;;;7390633;19;20142;-78
2023/12/24 10:56:04;;;;;;;0.20;0.20;;;11.30;99.90;;;;;;7391587;19;20133;-79
2023/12/24 10:58:37;;;;;;;0.20;0.20;;;11.30;99.90;;;;;;7393258;19;20980;-80
2023/12/24 11:01:08;;;;;;;0.28;0.22;;;11.30;99.90;;;;;;7394829;19;20163;-79
2023/12/24 11:03:48;;;;;;;0.17;0.17;;;11.20;99.90;;;;;;7392845;19;20631;-79
2023/12/24 11:06:39;;;;;;;0.13;0.13;;;11.20;99.90;;;;;;7390296;19;20136;-78
2023/12/24 11:09:14;;;;;;;1.27;1.17;;;11.30;99.90;;;;;;7392381;19;20146;-77
2023/12/24 11:11:54;;;;;;;0.60;0.50;;;11.40;99.90;;;;;;7397243;19;20224;-82
2023/12/24 11:14:39;;;;;;;2.33;1.73;;;11.50;99.90;;;;;;7399995;19;20955;-80
2023/12/24 11:17:06;;;;;;;3.67;2.13;;;11.60;99.90;;;;;;7390618;19;20135;-79
2023/12/24 11:19:41;;;;;;;1.30;0.80;;;11.60;99.90;;;;;;7394417;19;20154;-80
2023/12/24 11:22:11;;;;;;;3.03;2.05;;;11.50;99.90;;;;;;7392251;19;20778;-78
2023/12/24 11:24:41;;;;;;;2.22;0.70;;;11.60;99.90;;;;;;7388597;19;20150;-78
2023/12/24 11:27:08;;;;;;;7.13;4.30;;;11.60;99.90;;;;;;7393616;19;20142;-78
2023/12/24 11:29:40;;;;;;;1.15;0.90;;;11.60;99.90;;;;;;7388975;19;21239;-76
2023/12/24 11:32:24;;;;;;;2.20;2.00;;;11.50;99.90;;;;;;7390997;19;20176;-78
2023/12/24 11:34:58;;;;;;;3.10;2.67;;;11.60;99.90;;;;;;7388089;19;20138;-77
2023/12/24 11:37:31;;;;;;;1.20;1.10;;;11.70;99.90;;;;;;7382739;19;21089;-78
2023/12/24 11:40:18;;;;;;;1.23;1.00;;;11.60;99.90;;;;;;7383613;19;20134;-77
2023/12/24 11:42:46;;;;;;;0.70;0.70;;;11.70;99.90;;;;;;7387285;19;20130;-79
2023/12/24 11:45:19;;;;;;;0.40;0.40;;;11.60;99.90;;;;;;7391514;19;20146;-79
2023/12/24 11:47:45;;;;;;;0.20;0.20;;;11.70;99.90;;;;;;7390547;19;20142;-79
2023/12/24 11:50:12;;;;;;;0.20;0.20;;;11.70;99.90;;;;;;7390313;19;20982;-78
2023/12/24 11:52:46;;;;;;;0.28;0.28;;;11.70;99.90;;;;;;7389509;19;20620;-78
2023/12/24 11:55:16;;;;;;;0.10;0.10;;;11.60;99.90;;;;;;7389594;19;20130;-78
2023/12/24 11:57:42;;;;;;;0.30;0.30;;;11.70;99.90;;;;;;7390860;19;20138;-79
2023/12/24 12:00:23;;;;;;;0.40;0.40;;;11.80;99.90;;;;;;7387729;19;20150;-78
2023/12/24 12:02:59;;;;;;;0.20;0.20;;;11.90;99.90;;;;;;7392232;19;20467;-81
2023/12/24 12:05:25;;;;;;;0.20;0.20;;;11.80;99.90;;;;;;7382887;19;20154;-79
2023/12/24 12:07:54;;;;;;;0.20;0.20;;;11.90;99.90;;;;;;7387186;19;20158;-79
2023/12/24 12:10:21;;;;;;;0.22;0.22;;;12.00;99.90;;;;;;7391487;19;20558;-81
2023/12/24 12:12:46;;;;;;;0.60;0.20;;;11.90;99.90;;;;;;7388297;19;20155;-80
2023/12/24 12:15:14;;;;;;;0.25;0.25;;;11.90;99.90;;;;;;7388757;19;20141;-78
2023/12/24 12:17:40;;;;;;;0.10;0.10;;;12.00;99.90;;;;;;7388909;19;20226;-75
2023/12/24 12:20:06;;;;;;;0.30;0.30;;;12.20;99.90;;;;;;7386552;19;20131;-77
2023/12/24 12:22:32;;;;;;;0.40;0.30;;;12.10;99.90;;;;;;7388029;19;20135;-77
2023/12/24 12:24:58;;;;;;;0.17;0.17;;;12.20;99.90;;;;;;7390009;19;20182;-78
2023/12/24 12:27:25;;;;;;;0.40;0.40;;;12.20;99.90;;;;;;7390313;19;20134;-77
2023/12/24 12:29:51;;;;;;;0.30;0.30;;;12.20;99.90;;;;;;7387324;19;20672;-77
2023/12/24 12:32:16;;;;;;;0.20;0.20;;;12.00;99.90;;;;;;7392353;19;20134;-76
2023/12/24 12:34:43;;;;;;;0.20;0.20;;;12.20;99.90;;;;;;7389583;19;20549;-76
2023/12/24 12:37:09;;;;;;;0.20;0.20;;;12.20;99.90;;;;;;7391462;19;20142;-79
2023/12/24 12:39:36;;;;;;;0.20;0.20;;;12.40;99.90;;;;;;7381336;19;20137;-78
2023/12/24 12:42:04;;;;;;;0.20;0.20;;;12.50;99.90;;;;;;7387364;19;20218;-77
2023/12/24 12:44:30;;;;;;;0.20;0.20;;;12.40;99.90;;;;;;7389327;19;20155;-79
2023/12/24 12:46:55;;;;;;;0.28;0.28;;;12.30;99.90;;;;;;7389521;19;20138;-78